Molokai Airport Kaunakakai US
ICAO: PHMK
IATA:
Category: Medium
Scheduled Services:

Elevation: 454 ft
TransAlt. 18000 ft.

Airport Communications:
ATIS:128.2
HONOLULU CNTR:124.1
CTAF:125.7
GND:121.9
HONOLULU RDO:116.1
TWR:125.7

PHMK Zoom In..

Runways:

(A) RW 05 length 4494 ft width 100 ft
---- / hdg 49

(B) RW 17 length 3118 ft width 100 ft
---- / hdg 169

(C) RW 23 length 4494 ft width 100 ft
---- / hdg 229

(D) RW 35 length 3118 ft width 100 ft
---- / hdg 349

Location; PHMK
Day. 16 / Time. 17.54 Zulu
* Altimeter: 30.03
* Temperature: 28° c. 82.4°f.
* Wind from: 050° Speed 12 kn with Gusts up to 18 kn.
Dewpoint: 21° c.
Visibility: 10 Statute Miles.
Clouds: Clear (automated report).

PHMK 161754Z 05012G18KT 10SM CLR 28/21 A3003 RMK AO2 SLP167 T02830211 10283 20239 53012


Wind From 050°
Speed 12 kn.

 
 
jpsmedia.com for Web Design worldairports.se 2018   terms of use